メインページ
METAR-TAF:

METAR-TAF

空港 :

コルツォヴォ国際空港

エカテリンブルク, ロシア

緯度: 56-50N, 経度: 060-38E, 海抜: 237m

現時点の気象観測

当レポートは15分前の12:00(UTC)に作成
西/南西の風 12kt
気温 -2°C
湿度 28%
気圧 1029 hPa
視程10km以上
1,500メートル以下は雲なし、積乱雲なし

METAR: USSS 141200Z 24006MPS CAVOK M02/M18 Q1029 R26R/150050 NOSIG RMK QFE751/1001

時間: 17:15 (12:15 UTC)

予報

当レポートは1時間20分前の10:55(UTC)に作成
予報は14日の 12時(UTC)から 15日の 12時(UTC)まで有効
西/南西の風 12kt、最大21ktの突風を伴う
視程10km以上
高度3000ftの雲は散在している
14日の 12時(UTC)から 14日の 18時(UTC)まで一時的に
西/南西の風 14kt、最大31ktの突風を伴う

TAF: USSS 141055Z 1412/1512 24006G11MPS 9999 SCT030 TEMPO 1412/1418 25007G16MPS

4,000以上の空港の気象観測と天気予報(METAR報とTAF報)

利用可能な観測所は地図上に黄色い丸と赤い丸で示す。

丸の上にカーソルを重ねると観測所名を参照できる。

次にクリックすると気象観測と天気予報を参照できる。

マップの切り替え:黒色「×」印の緑ボタンをクリックして拡大、「-」印の緑ボタンをクリックして縮小、緑色の三角印をクリックして隣りの地図に切り替え


METAR-TAF: